Time;durP1;ratioP1;P1;durP2;ratioP2;P2;SDS_P1;SDS_P2;PMS_P1;PMS_P2;Temp;Humidity;BMP_temperature;BMP_pressure;BME280_temperature;BME280_humidity;BME280_pressure;Samples;Min_cycle;Max_cycle;Signal;HPM_P1;HPM_P2
2022/11/10 05:31:25;;;;;;;;;5.67;5.67;;;;;-147.14;100.00;58812.66;5462219;23;46328;-61
2022/11/10 05:33:50;;;;;;;;;9.00;6.00;;;;;-147.14;100.00;58812.66;5001426;28;45384;-62
2022/11/10 05:36:16;;;;;;;;;7.00;6.67;;;;;-147.14;100.00;58812.66;5002035;28;68896;-62
2022/11/10 05:38:41;;;;;;;;;7.33;4.33;;;;;-147.14;100.00;58812.66;5004451;28;45407;-62
2022/11/10 05:41:06;;;;;;;;;9.33;5.67;;;;;-147.14;100.00;58812.66;5006450;28;46083;-62
2022/11/10 05:43:32;;;;;;;;;5.00;5.00;;;;;-147.14;100.00;58812.66;5004410;28;45390;-61
2022/11/10 05:45:57;;;;;;;;;7.00;6.67;;;;;-147.14;100.00;58812.66;5000364;28;45529;-61
2022/11/10 05:48:23;;;;;;;;;9.00;7.67;;;;;-147.14;100.00;58812.66;5008929;28;45626;-61
2022/11/10 05:50:48;;;;;;;;;7.67;7.67;;;;;-147.14;100.00;58812.66;5004727;28;46323;-62
2022/11/10 05:53:14;;;;;;;;;8.00;6.00;;;;;-147.14;100.00;58812.66;5006451;28;45359;-62
2022/11/10 05:55:39;;;;;;;;;4.67;4.67;;;;;-147.14;100.00;58812.66;4999757;28;45434;-61
2022/11/10 05:58:04;;;;;;;;;7.00;5.33;;;;;-147.14;100.00;58812.66;4998810;28;45458;-62
2022/11/10 06:00:30;;;;;;;;;7.00;5.00;;;;;-147.14;100.00;58812.66;4994803;28;45559;-62
2022/11/10 06:03:25;;;;;;;;;5.67;5.67;;;;;-147.14;100.00;58812.66;5001351;28;45539;-63
2022/11/10 06:05:50;;;;;;;;;7.00;5.00;;;;;-147.14;100.00;58812.66;5000639;28;58408;-62
2022/11/10 06:08:16;;;;;;;;;5.00;4.67;;;;;-147.14;100.00;58812.66;4996738;28;45447;-62
2022/11/10 06:10:42;;;;;;;;;5.00;5.00;;;;;-147.14;100.00;58812.66;5000971;28;46097;-62
2022/11/10 06:13:07;;;;;;;;;7.33;6.00;;;;;-147.14;100.00;58812.66;4998909;28;61787;-62
2022/11/10 06:15:33;;;;;;;;;9.33;6.00;;;;;-147.14;100.00;58812.66;4998172;28;45408;-62
2022/11/10 06:17:58;;;;;;;;;7.67;6.00;;;;;-147.14;100.00;58812.66;4999537;28;45360;-62
2022/11/10 06:20:24;;;;;;;;;7.33;7.00;;;;;-147.14;100.00;58812.66;4995474;28;45470;-62
2022/11/10 06:23:08;;;;;;;;;7.33;7.00;;;;;-147.14;100.00;58812.66;4990997;28;45492;-63
2022/11/10 06:25:35;;;;;;;;;8.00;6.67;;;;;-147.14;100.00;58812.66;4998819;28;45461;-63
2022/11/10 06:28:01;;;;;;;;;10.00;7.00;;;;;-147.14;100.00;58812.66;5013221;28;45352;-63
2022/11/10 06:30:28;;;;;;;;;6.00;6.00;;;;;-147.14;100.00;58812.66;4995137;28;46199;-62
2022/11/10 06:32:53;;;;;;;;;6.00;6.00;;;;;-147.14;100.00;58812.66;4999251;28;45455;-62
2022/11/10 06:35:20;;;;;;;;;7.33;7.33;;;;;-147.14;100.00;58812.66;5008458;28;58733;-63
2022/11/10 06:37:45;;;;;;;;;9.00;6.00;;;;;-147.14;100.00;58812.66;5006438;28;45531;-63
2022/11/10 06:40:15;;;;;;;;;6.00;5.00;;;;;-147.14;100.00;58812.66;5005157;28;48286;-63
2022/11/10 06:42:40;;;;;;;;;5.00;5.00;;;;;-147.14;100.00;58812.66;5001823;28;45510;-63
2022/11/10 06:45:06;;;;;;;;;7.33;6.67;;;;;-147.14;100.00;58812.66;5006196;28;46804;-63
2022/11/10 06:47:31;;;;;;;;;7.00;7.00;;;;;-147.14;100.00;58812.66;5000841;28;45482;-64
2022/11/10 06:49:57;;;;;;;;;7.67;6.00;;;;;-147.14;100.00;58812.66;5004088;28;46003;-63
2022/11/10 06:52:22;;;;;;;;;8.00;4.67;;;;;-147.14;100.00;58812.66;5010572;28;59572;-63
2022/11/10 06:54:47;;;;;;;;;7.67;6.33;;;;;-147.14;100.00;58812.66;5001566;28;62577;-63
2022/11/10 06:57:13;;;;;;;;;10.33;6.33;;;;;-147.14;100.00;58812.66;5008391;28;67095;-63
2022/11/10 06:59:38;;;;;;;;;7.00;6.00;;;;;-147.14;100.00;58812.66;4999787;28;68087;-63
2022/11/10 07:02:03;;;;;;;;;5.67;3.33;;;;;-147.14;100.00;58812.66;5000697;28;68393;-63
2022/11/10 07:04:29;;;;;;;;;8.33;6.33;;;;;-147.14;100.00;58812.66;5008456;28;65601;-63
2022/11/10 07:06:54;;;;;;;;;8.00;7.00;;;;;-147.14;100.00;58812.66;5002000;28;64335;-62
2022/11/10 07:09:22;;;;;;;;;10.67;9.00;;;;;-147.14;100.00;58812.66;4999134;28;73759;-62
2022/11/10 07:11:48;;;;;;;;;7.00;7.00;;;;;-147.14;100.00;58812.66;5010202;28;45483;-61
2022/11/10 07:14:13;;;;;;;;;8.00;5.67;;;;;-147.14;100.00;58812.66;4999668;28;64147;-61
2022/11/10 07:16:38;;;;;;;;;5.00;4.00;;;;;-147.14;100.00;58812.66;5009002;28;68755;-62
2022/11/10 07:19:04;;;;;;;;;12.00;7.67;;;;;-147.14;100.00;58812.66;4999025;28;67778;-62
2022/11/10 07:21:29;;;;;;;;;8.33;7.00;;;;;-147.14;100.00;58812.66;5002716;28;45430;-61
2022/11/10 07:23:54;;;;;;;;;7.33;6.00;;;;;-147.14;100.00;58812.66;5009429;28;45627;-63
2022/11/10 07:26:20;;;;;;;;;15.67;13.00;;;;;-147.14;100.00;58812.66;5010529;28;64033;-63
2022/11/10 07:28:45;;;;;;;;;15.00;11.33;;;;;-147.14;100.00;58812.66;5003360;28;46054;-63
2022/11/10 07:31:10;;;;;;;;;12.33;12.00;;;;;-147.14;100.00;58812.66;4999630;28;45344;-64
2022/11/10 07:33:36;;;;;;;;;16.00;14.00;;;;;-147.14;100.00;58812.66;5001692;28;47040;-62
2022/11/10 07:36:02;;;;;;;;;17.00;14.00;;;;;-147.14;100.00;58812.66;5002668;28;54379;-64
2022/11/10 07:38:28;;;;;;;;;15.00;10.67;;;;;-147.14;100.00;58812.66;5004464;28;45435;-62
2022/11/10 07:40:54;;;;;;;;;15.33;13.33;;;;;-147.14;100.00;58812.66;5000710;28;45947;-64
2022/11/10 07:43:21;;;;;;;;;9.33;9.33;;;;;-147.14;100.00;58812.66;5002579;28;45477;-64
2022/11/10 07:45:48;;;;;;;;;15.67;13.33;;;;;-147.14;100.00;58812.66;5003671;28;45598;-64
2022/11/10 07:48:13;;;;;;;;;13.33;13.33;;;;;-147.14;100.00;58812.66;5005227;28;46051;-64
2022/11/10 07:50:39;;;;;;;;;15.33;13.33;;;;;-147.14;100.00;58812.66;5004633;28;45502;-64
2022/11/10 07:53:05;;;;;;;;;11.33;11.33;;;;;-147.14;100.00;58812.66;5000257;28;45643;-64
2022/11/10 07:55:30;;;;;;;;;12.33;10.67;;;;;-147.14;100.00;58812.66;5005124;28;46030;-64
2022/11/10 07:57:57;;;;;;;;;18.00;11.33;;;;;-147.14;100.00;58812.66;4999178;28;70192;-64
2022/11/10 08:00:22;;;;;;;;;10.67;9.00;;;;;-147.14;100.00;58812.66;5003667;28;45462;-64
2022/11/10 08:02:48;;;;;;;;;10.33;10.33;;;;;-147.14;100.00;58812.66;5001836;28;45440;-64
2022/11/10 08:05:13;;;;;;;;;12.33;10.33;;;;;-147.14;100.00;58812.66;5002555;28;45723;-64
2022/11/10 08:07:39;;;;;;;;;13.33;10.00;;;;;-147.14;100.00;58812.66;5000479;28;70916;-64
2022/11/10 08:10:05;;;;;;;;;11.33;10.67;;;;;-147.14;100.00;58812.66;5009385;28;45788;-64
2022/11/10 08:12:31;;;;;;;;;22.00;11.33;;;;;-147.14;100.00;58812.66;5001932;28;45407;-64
2022/11/10 08:14:57;;;;;;;;;10.67;9.33;;;;;-147.14;100.00;58812.66;5013574;28;45543;-64
2022/11/10 08:17:23;;;;;;;;;13.67;10.67;;;;;-147.14;100.00;58812.66;5000559;28;65324;-64
2022/11/10 08:19:48;;;;;;;;;11.67;11.33;;;;;-147.14;100.00;58812.66;5004199;28;68003;-64
2022/11/10 08:22:13;;;;;;;;;15.33;11.00;;;;;-147.14;100.00;58812.66;5004323;28;67972;-64
2022/11/10 08:24:39;;;;;;;;;14.00;10.33;;;;;-147.14;100.00;58812.66;5007470;28;45431;-64
2022/11/10 08:27:05;;;;;;;;;14.00;10.33;;;;;-147.14;100.00;58812.66;5007973;28;72555;-64
2022/11/10 08:29:30;;;;;;;;;10.00;8.33;;;;;-147.14;100.00;58812.66;5008201;28;45585;-63
2022/11/10 08:31:55;;;;;;;;;11.33;10.00;;;;;-147.14;100.00;58812.66;5009625;28;50013;-63
2022/11/10 08:34:21;;;;;;;;;11.33;9.67;;;;;-147.14;100.00;58812.66;5008618;28;63043;-63
2022/11/10 08:36:47;;;;;;;;;11.67;8.67;;;;;-147.14;100.00;58812.66;5002777;28;46047;-64
2022/11/10 08:39:13;;;;;;;;;11.00;9.67;;;;;-147.14;100.00;58812.66;4999784;28;45339;-64
2022/11/10 08:41:38;;;;;;;;;11.00;8.33;;;;;-147.14;100.00;58812.66;5009523;28;45369;-64
2022/11/10 08:44:03;;;;;;;;;8.67;8.67;;;;;-147.14;100.00;58812.66;5004502;28;45455;-64
2022/11/10 08:46:29;;;;;;;;;10.33;10.00;;;;;-147.14;100.00;58812.66;4999338;28;47289;-64
2022/11/10 08:48:54;;;;;;;;;11.67;10.67;;;;;-147.14;100.00;58812.66;4997430;28;66439;-64
2022/11/10 08:51:21;;;;;;;;;12.33;8.33;;;;;-147.14;100.00;58812.66;4999805;28;45270;-64
2022/11/10 08:53:46;;;;;;;;;12.00;10.00;;;;;-147.14;100.00;58812.66;5003422;28;45503;-64
2022/11/10 08:56:11;;;;;;;;;13.00;9.00;;;;;-147.14;100.00;58812.66;5013470;28;68644;-64
2022/11/10 08:58:37;;;;;;;;;11.33;8.00;;;;;-147.14;100.00;58812.66;5014615;28;69957;-64
2022/11/10 09:01:10;;;;;;;;;9.00;9.00;;;;;-147.14;100.00;58812.66;5007418;28;45490;-64
2022/11/10 09:03:35;;;;;;;;;9.00;9.00;;;;;-147.14;100.00;58812.66;5005529;28;45347;-64
2022/11/10 09:06:01;;;;;;;;;12.33;10.00;;;;;-147.14;100.00;58812.66;5006701;28;45513;-65
2022/11/10 09:08:26;;;;;;;;;10.33;9.00;;;;;-147.14;100.00;58812.66;5011120;28;67824;-64
2022/11/10 09:10:51;;;;;;;;;12.33;10.00;;;;;-147.14;100.00;58812.66;4999179;28;68170;-64
2022/11/10 09:13:18;;;;;;;;;9.33;9.00;;;;;-147.14;100.00;58812.66;5006106;28;62170;-64
2022/11/10 09:15:44;;;;;;;;;11.00;9.33;;;;;-147.14;100.00;58812.66;5005345;28;47252;-64
2022/11/10 09:18:11;;;;;;;;;7.33;7.33;;;;;-147.14;100.00;58812.66;5004418;28;45534;-64
2022/11/10 09:20:37;;;;;;;;;9.00;9.00;;;;;-147.14;100.00;58812.66;5013480;28;45755;-64
2022/11/10 09:23:07;;;;;;;;;8.33;7.00;;;;;-147.14;100.00;58812.66;4998283;28;45472;-64
2022/11/10 09:25:32;;;;;;;;;8.00;7.00;;;;;-147.14;100.00;58812.66;5003846;28;46294;-64
2022/11/10 09:27:58;;;;;;;;;7.33;7.33;;;;;-147.14;100.00;58812.66;5005136;28;67162;-64
2022/11/10 09:30:24;;;;;;;;;9.00;7.67;;;;;-147.14;100.00;58812.66;5003375;28;64580;-64
2022/11/10 09:32:53;;;;;;;;;10.67;6.33;;;;;-147.14;100.00;58812.66;4998292;28;45300;-64
2022/11/10 09:35:18;;;;;;;;;13.67;7.67;;;;;-147.14;100.00;58812.66;5011813;28;46138;-65
2022/11/10 09:37:44;;;;;;;;;8.00;6.00;;;;;-147.14;100.00;58812.66;4998770;28;65862;-64
2022/11/10 09:40:16;;;;;;;;;7.00;5.33;;;;;-147.14;100.00;58812.66;5010198;28;62159;-65
2022/11/10 09:42:42;;;;;;;;;9.00;4.67;;;;;-147.14;100.00;58812.66;4998175;28;45594;-65
2022/11/10 09:45:21;;;;;;;;;4.33;4.00;;;;;-147.14;100.00;58812.66;5014997;28;56785;-64
2022/11/10 09:48:02;;;;;;;;;5.00;3.67;;;;;-147.14;100.00;58812.66;5004011;28;45438;-64
2022/11/10 09:50:45;;;;;;;;;4.33;4.33;;;;;-147.14;100.00;58812.66;5006687;28;45677;-64
2022/11/10 09:53:17;;;;;;;;;2.33;2.33;;;;;-147.14;100.00;58812.66;5006947;28;45498;-64
2022/11/10 09:55:48;;;;;;;;;3.00;3.00;;;;;-147.14;100.00;58812.66;4998993;28;46308;-65
2022/11/10 09:58:14;;;;;;;;;7.67;3.00;;;;;-147.14;100.00;58812.66;5008492;28;45476;-65
2022/11/10 10:00:41;;;;;;;;;5.00;3.00;;;;;-147.14;100.00;58812.66;5007045;28;64230;-65
2022/11/10 10:03:14;;;;;;;;;2.25;2.25;;;;;-147.14;100.00;58812.66;5003622;28;45555;-65
2022/11/10 10:05:45;;;;;;;;;2.00;2.00;;;;;-147.14;100.00;58812.66;5015294;28;45410;-65
2022/11/10 10:08:36;;;;;;;;;4.75;3.00;;;;;-147.14;100.00;58812.66;5011834;28;45833;-65
2022/11/10 10:11:45;;;;;;;;;3.00;3.00;;;;;-147.14;100.00;58812.66;4993188;28;45400;-65
2022/11/10 10:14:10;;;;;;;;;5.50;3.75;;;;;-147.14;100.00;58812.66;5008578;28;45290;-66
2022/11/10 10:16:50;;;;;;;;;3.75;2.50;;;;;-147.14;100.00;58812.66;4997980;28;46190;-65
2022/11/10 10:19:21;;;;;;;;;4.00;4.00;;;;;-147.14;100.00;58812.66;5005881;28;45465;-65
2022/11/10 10:21:49;;;;;;;;;3.75;3.00;;;;;-147.14;100.00;58812.66;5010795;28;45462;-65
2022/11/10 10:24:16;;;;;;;;;8.00;5.00;;;;;-147.14;100.00;58812.66;5006170;28;45358;-65
2022/11/10 10:26:51;;;;;;;;;5.00;3.00;;;;;-147.14;100.00;58812.66;4997880;28;45508;-64
2022/11/10 10:29:21;;;;;;;;;2.75;2.75;;;;;-147.14;100.00;58812.66;5006359;28;45422;-65
2022/11/10 10:31:48;;;;;;;;;3.00;3.00;;;;;-147.14;100.00;58812.66;5013800;28;45431;-65
2022/11/10 10:34:16;;;;;;;;;4.50;3.00;;;;;-147.14;100.00;58812.66;5010640;28;45270;-65
2022/11/10 10:36:43;;;;;;;;;2.50;1.00;;;;;-147.14;100.00;58812.66;5012144;28;47525;-65
2022/11/10 10:39:15;;;;;;;;;2.25;2.00;;;;;-147.14;100.00;58812.66;5012832;28;45414;-65
2022/11/10 10:41:43;;;;;;;;;3.25;3.25;;;;;-147.14;100.00;58812.66;5009432;28;45535;-65
2022/11/10 10:44:15;;;;;;;;;4.25;2.00;;;;;-147.14;100.00;58812.66;5002978;28;45538;-65
2022/11/10 10:46:49;;;;;;;;;4.00;2.50;;;;;-147.14;100.00;58812.66;5010509;28;45708;-65
2022/11/10 10:49:25;;;;;;;;;3.75;3.50;;;;;-147.14;100.00;58812.66;5002535;28;45451;-65
2022/11/10 10:52:05;;;;;;;;;5.75;3.00;;;;;-147.14;100.00;58812.66;5004201;28;45609;-65
2022/11/10 10:54:32;;;;;;;;;4.00;3.00;;;;;-147.14;100.00;58812.66;5006207;28;45329;-65
2022/11/10 10:57:23;;;;;;;;;5.00;4.00;;;;;-147.14;100.00;58812.66;4997703;28;46213;-65
2022/11/10 10:59:48;;;;;;;;;4.50;3.00;;;;;-147.14;100.00;58812.66;5000611;28;45455;-65
2022/11/10 11:02:23;;;;;;;;;4.75;2.75;;;;;-147.14;100.00;58812.66;5013237;28;45467;-65
2022/11/10 11:05:08;;;;;;;;;6.75;6.75;;;;;-147.14;100.00;58812.66;5009905;28;45316;-65
2022/11/10 11:07:34;;;;;;;;;8.00;7.00;;;;;-147.14;100.00;58812.66;5000430;28;45456;-65
2022/11/10 11:10:00;;;;;;;;;13.00;9.00;;;;;-147.14;100.00;58812.66;4996555;28;65947;-65
2022/11/10 11:12:27;;;;;;;;;15.00;11.25;;;;;-147.14;100.00;58812.66;4999310;28;45416;-65
2022/11/10 11:15:12;;;;;;;;;11.00;11.00;;;;;-147.14;100.00;58812.66;5004213;28;45503;-65
2022/11/10 11:17:38;;;;;;;;;12.00;9.00;;;;;-147.14;100.00;58812.66;5005478;28;46174;-67
2022/11/10 11:20:11;;;;;;;;;9.75;7.75;;;;;-147.14;100.00;58812.66;5000450;28;45364;-67
2022/11/10 11:22:50;;;;;;;;;17.00;14.00;;;;;-147.14;100.00;58812.66;5017079;28;45381;-67
2022/11/10 11:25:22;;;;;;;;;15.33;12.00;;;;;-147.14;100.00;58812.66;4999678;28;45456;-67
2022/11/10 11:27:57;;;;;;;;;9.00;9.00;;;;;-147.14;100.00;58812.66;5018173;28;45429;-67
2022/11/10 11:30:26;;;;;;;;;6.00;6.00;;;;;-147.14;100.00;58812.66;5016026;28;45598;-66
2022/11/10 11:33:00;;;;;;;;;13.25;6.25;;;;;-147.14;100.00;58812.66;5015222;28;45543;-67
2022/11/10 11:35:32;;;;;;;;;7.75;5.75;;;;;-147.14;100.00;58812.66;5009138;28;45488;-66
2022/11/10 11:38:09;;;;;;;;;8.00;7.50;;;;;-147.14;100.00;58812.66;5000412;28;45468;-66
2022/11/10 11:40:40;;;;;;;;;10.00;8.25;;;;;-147.14;100.00;58812.66;5017059;28;45693;-67
2022/11/10 11:43:43;;;;;;;;;8.25;7.00;;;;;-147.14;100.00;58812.66;5005989;28;45481;-67
2022/11/10 11:46:46;;;;;;;;;5.00;5.00;;;;;-147.14;100.00;58812.66;5018310;28;45584;-67
2022/11/10 11:49:17;;;;;;;;;9.75;9.75;;;;;-147.14;100.00;58812.66;5000280;28;45462;-66
2022/11/10 11:52:13;;;;;;;;;18.50;15.50;;;;;-147.14;100.00;58812.66;5005053;28;45590;-67
2022/11/10 11:55:13;;;;;;;;;18.33;15.33;;;;;-147.14;100.00;58812.66;5016535;28;45422;-67
2022/11/10 11:57:48;;;;;;;;;16.00;14.67;;;;;-147.14;100.00;58812.66;5006996;28;45534;-65
2022/11/10 12:00:16;;;;;;;;;18.00;17.67;;;;;-147.14;100.00;58812.66;4999079;28;45445;-67
2022/11/10 12:03:38;;;;;;;;;20.67;15.33;;;;;-147.14;100.00;58812.66;5002279;28;45550;-66
2022/11/10 12:06:22;;;;;;;;;19.67;16.00;;;;;-147.14;100.00;58812.66;4922956;28;45551;-66
2022/11/10 12:08:53;;;;;;;;;19.00;17.00;;;;;-147.14;100.00;58812.66;4931129;28;45340;-67
2022/11/10 12:11:49;;;;;;;;;14.33;12.33;;;;;-147.14;100.00;58812.66;4979788;28;45471;-66
2022/11/10 12:14:42;;;;;;;;;13.00;12.00;;;;;-147.14;100.00;58812.66;5004939;28;45649;-66
2022/11/10 12:17:20;;;;;;;;;9.00;9.00;;;;;-147.14;100.00;58812.66;4998789;28;45428;-66
2022/11/10 12:20:13;;;;;;;;;10.33;9.00;;;;;-147.14;100.00;58812.66;5002054;28;45404;-66
2022/11/10 12:22:52;;;;;;;;;8.25;5.75;;;;;-147.14;100.00;58812.66;5002291;28;46190;-66
2022/11/10 12:25:55;;;;;;;;;5.75;4.00;;;;;-147.14;100.00;58812.66;5001630;28;45309;-66
2022/11/10 12:28:25;;;;;;;;;4.00;4.00;;;;;-147.14;100.00;58812.66;4997390;28;45396;-66
2022/11/10 12:30:53;;;;;;;;;3.75;3.00;;;;;-147.14;100.00;58812.66;5010124;28;45577;-67
2022/11/10 12:33:40;;;;;;;;;2.50;2.00;;;;;-147.14;100.00;58812.66;5002388;28;45454;-66
2022/11/10 12:36:10;;;;;;;;;3.25;3.00;;;;;-147.14;100.00;58812.66;5001870;28;45547;-66
2022/11/10 12:38:43;;;;;;;;;2.50;2.50;;;;;-147.14;100.00;58812.66;5006535;28;45328;-66
2022/11/10 12:41:19;;;;;;;;;4.75;4.00;;;;;-147.14;100.00;58812.66;5003593;28;45448;-67
2022/11/10 12:44:11;;;;;;;;;2.00;2.00;;;;;-147.14;100.00;58812.66;5009784;28;45802;-66
2022/11/10 12:46:37;;;;;;;;;4.00;3.00;;;;;-147.14;100.00;58812.66;4999121;28;45386;-66
2022/11/10 12:49:26;;;;;;;;;2.75;2.50;;;;;-147.14;100.00;58812.66;5014662;28;45289;-67
2022/11/10 12:52:15;;;;;;;;;8.75;4.00;;;;;-147.14;100.00;58812.66;4998901;28;45534;-66
2022/11/10 12:54:44;;;;;;;;;5.00;5.00;;;;;-147.14;100.00;58812.66;5005947;28;45393;-67
2022/11/10 12:57:17;;;;;;;;;4.33;3.67;;;;;-147.14;100.00;58812.66;4988591;28;45406;-66
2022/11/10 12:59:54;;;;;;;;;6.00;4.67;;;;;-147.14;100.00;58812.66;5005438;28;45504;-67
2022/11/10 13:02:27;;;;;;;;;5.00;4.67;;;;;-147.14;100.00;58812.66;5004114;28;45553;-66
2022/11/10 13:05:10;;;;;;;;;4.33;4.00;;;;;-147.14;100.00;58812.66;5007465;28;46479;-68
2022/11/10 13:07:35;;;;;;;;;7.67;3.00;;;;;-147.14;100.00;58812.66;5007500;28;45398;-67
2022/11/10 13:10:26;;;;;;;;;2.00;2.00;;;;;-147.14;100.00;58812.66;5005195;28;68755;-67
2022/11/10 13:13:04;;;;;;;;;5.00;4.00;;;;;-147.14;100.00;58812.66;5005804;28;45514;-67
2022/11/10 13:15:36;;;;;;;;;3.00;3.00;;;;;-147.14;100.00;58812.66;5000839;28;45481;-66
2022/11/10 13:18:03;;;;;;;;;4.00;3.33;;;;;-147.14;100.00;58812.66;5000540;28;45305;-66
2022/11/10 13:20:38;;;;;;;;;2.00;2.00;;;;;-147.14;100.00;58812.66;5001153;28;45350;-66
2022/11/10 13:23:34;;;;;;;;;4.25;3.50;;;;;-147.14;100.00;58812.66;5011855;28;45214;-67
2022/11/10 13:26:06;;;;;;;;;3.00;3.00;;;;;-147.14;100.00;58812.66;4998115;28;47179;-67
2022/11/10 13:28:47;;;;;;;;;4.00;4.00;;;;;-147.14;100.00;58812.66;5021767;28;45383;-67
2022/11/10 13:31:27;;;;;;;;;5.00;5.00;;;;;-147.14;100.00;58812.66;5003784;28;45494;-66
2022/11/10 13:34:17;;;;;;;;;5.67;5.00;;;;;-147.14;100.00;58812.66;5008450;28;45731;-67
2022/11/10 13:36:48;;;;;;;;;7.00;4.67;;;;;-147.14;100.00;58812.66;5007833;28;46276;-66
2022/11/10 13:39:19;;;;;;;;;9.00;7.00;;;;;-147.14;100.00;58812.66;5009402;28;45429;-67
2022/11/10 13:42:07;;;;;;;;;8.00;6.00;;;;;-147.14;100.00;58812.66;5004872;28;45482;-67
2022/11/10 13:44:46;;;;;;;;;10.00;9.00;;;;;-147.14;100.00;58812.66;5000034;28;45541;-67
2022/11/10 13:47:33;;;;;;;;;8.00;7.67;;;;;-147.14;100.00;58812.66;5005711;28;46260;-67
2022/11/10 13:50:29;;;;;;;;;11.33;9.67;;;;;-147.14;100.00;58812.66;5004527;28;45289;-66
2022/11/10 13:53:22;;;;;;;;;7.00;6.67;;;;;-147.14;100.00;58812.66;5021283;28;45561;-66
2022/11/10 13:56:18;;;;;;;;;10.33;9.00;;;;;-147.14;100.00;58812.66;4987998;28;45583;-66
2022/11/10 13:58:44;;;;;;;;;8.33;7.67;;;;;-147.14;100.00;58812.66;5004219;28;45510;-66
2022/11/10 14:01:15;;;;;;;;;8.67;8.33;;;;;-147.14;100.00;58812.66;5003490;28;65464;-66
2022/11/10 14:03:43;;;;;;;;;7.00;7.00;;;;;-147.14;100.00;58812.66;5000900;28;45616;-66
2022/11/10 14:06:14;;;;;;;;;8.33;8.33;;;;;-147.14;100.00;58812.66;5005609;28;45557;-66
2022/11/10 14:08:44;;;;;;;;;8.33;8.33;;;;;-147.14;100.00;58812.66;5003137;28;46234;-66
2022/11/10 14:11:14;;;;;;;;;10.33;9.00;;;;;-147.14;100.00;58812.66;5003458;28;45550;-67
2022/11/10 14:13:44;;;;;;;;;8.00;8.00;;;;;-147.14;100.00;58812.66;5004966;28;45504;-66
2022/11/10 14:16:19;;;;;;;;;9.67;9.67;;;;;-147.14;100.00;58812.66;5002801;28;45598;-66
2022/11/10 14:18:58;;;;;;;;;14.67;11.33;;;;;-147.14;100.00;58812.66;5017975;28;45513;-66
2022/11/10 14:21:32;;;;;;;;;11.33;10.00;;;;;-147.14;100.00;58812.66;5017770;28;45756;-66
2022/11/10 14:24:11;;;;;;;;;12.00;12.00;;;;;-147.14;100.00;58812.66;5008503;28;45437;-66
2022/11/10 14:26:44;;;;;;;;;13.67;9.67;;;;;-147.14;100.00;58812.66;5012904;28;45375;-66
2022/11/10 14:29:39;;;;;;;;;12.33;8.00;;;;;-147.14;100.00;58812.66;5004563;28;45993;-66
2022/11/10 14:32:14;;;;;;;;;13.67;9.67;;;;;-147.14;100.00;58812.66;4991234;28;45225;-66
2022/11/10 14:34:48;;;;;;;;;10.00;7.67;;;;;-147.14;100.00;58812.66;5005087;28;45713;-66
2022/11/10 14:37:21;;;;;;;;;12.67;12.33;;;;;-147.14;100.00;58812.66;5005774;28;45548;-66
2022/11/10 14:39:47;;;;;;;;;10.67;10.67;;;;;-147.14;100.00;58812.66;5004079;28;45513;-66
2022/11/10 14:42:18;;;;;;;;;7.67;7.00;;;;;-147.14;100.00;58812.66;5006297;28;45493;-66
2022/11/10 14:44:44;;;;;;;;;12.67;10.67;;;;;-147.14;100.00;58812.66;5000346;28;45516;-66
2022/11/10 14:47:36;;;;;;;;;11.33;10.00;;;;;-147.14;100.00;58812.66;5008512;28;45311;-66
2022/11/10 14:50:23;;;;;;;;;11.67;11.67;;;;;-147.14;100.00;58812.66;5004614;28;46231;-66
2022/11/10 14:52:53;;;;;;;;;15.67;14.67;;;;;-147.14;100.00;58812.66;5010701;28;45530;-66
2022/11/10 14:55:23;;;;;;;;;10.33;9.33;;;;;-147.14;100.00;58812.66;5007890;28;45714;-66
2022/11/10 14:57:53;;;;;;;;;12.33;12.33;;;;;-147.14;100.00;58812.66;5009136;28;45787;-66
2022/11/10 15:00:26;;;;;;;;;21.00;15.33;;;;;-147.14;100.00;58812.66;5007207;28;46972;-66
2022/11/10 15:02:54;;;;;;;;;15.00;14.00;;;;;-147.14;100.00;58812.66;5002647;28;45532;-66
2022/11/10 15:05:20;;;;;;;;;11.00;11.00;;;;;-147.14;100.00;58812.66;4999082;28;45808;-66
2022/11/10 15:07:46;;;;;;;;;10.00;10.00;;;;;-147.14;100.00;58812.66;5009301;28;46683;-66
2022/11/10 15:10:14;;;;;;;;;10.67;10.67;;;;;-147.14;100.00;58812.66;5008393;28;46217;-67
2022/11/10 15:12:40;;;;;;;;;10.33;8.00;;;;;-147.14;100.00;58812.66;5009692;28;45237;-66
2022/11/10 15:15:20;;;;;;;;;7.00;5.33;;;;;-147.14;100.00;58812.66;5011216;28;45418;-65
2022/11/10 15:17:49;;;;;;;;;12.00;11.00;;;;;-147.14;100.00;58812.66;5005819;28;45431;-66
2022/11/10 15:20:26;;;;;;;;;11.67;10.67;;;;;-147.14;100.00;58812.66;5015491;28;46547;-65
2022/11/10 15:22:52;;;;;;;;;12.33;12.33;;;;;-147.14;100.00;58812.66;5005050;28;45285;-65
2022/11/10 15:25:19;;;;;;;;;9.67;8.00;;;;;-147.14;100.00;58812.66;5008020;28;64238;-66
2022/11/10 15:28:01;;;;;;;;;8.33;7.00;;;;;-147.14;100.00;58812.66;5007244;28;45440;-65
2022/11/10 15:30:26;;;;;;;;;8.00;8.00;;;;;-147.14;100.00;58812.66;5012460;28;46899;-65
2022/11/10 15:32:52;;;;;;;;;7.67;7.67;;;;;-147.14;100.00;58812.66;5006611;28;65837;-66
2022/11/10 15:35:23;;;;;;;;;5.00;5.00;;;;;-147.14;100.00;58812.66;5010557;28;45288;-65
2022/11/10 15:38:11;;;;;;;;;7.67;6.67;;;;;-147.14;100.00;58812.66;5012246;28;45614;-66
2022/11/10 15:40:43;;;;;;;;;9.00;7.67;;;;;-147.14;100.00;58812.66;5005170;28;45350;-66
2022/11/10 15:43:25;;;;;;;;;11.33;8.00;;;;;-147.14;100.00;58812.66;5008274;28;46454;-65
2022/11/10 15:46:02;;;;;;;;;9.00;7.67;;;;;-147.14;100.00;58812.66;5015580;28;45473;-66
2022/11/10 15:48:36;;;;;;;;;7.67;7.33;;;;;-147.14;100.00;58812.66;5007097;28;45618;-66
2022/11/10 15:51:01;;;;;;;;;13.00;10.00;;;;;-147.14;100.00;58812.66;5021726;28;46247;-66
2022/11/10 15:53:30;;;;;;;;;11.67;8.00;;;;;-147.14;100.00;58812.66;5004190;28;65587;-65
2022/11/10 15:55:55;;;;;;;;;12.00;11.00;;;;;-147.14;100.00;58812.66;5002641;28;45486;-66
2022/11/10 15:58:22;;;;;;;;;14.67;10.33;;;;;-147.14;100.00;58812.66;5006199;28;49852;-65
2022/11/10 16:00:47;;;;;;;;;8.00;6.00;;;;;-147.14;100.00;58812.66;5005255;28;46546;-65
2022/11/10 16:03:15;;;;;;;;;10.67;9.33;;;;;-147.14;100.00;58812.66;5007114;28;45544;-65
2022/11/10 16:05:41;;;;;;;;;12.33;12.00;;;;;-147.14;100.00;58812.66;5004710;28;45462;-65
2022/11/10 16:08:11;;;;;;;;;6.67;6.67;;;;;-147.14;100.00;58812.66;5007351;28;45505;-66
2022/11/10 16:10:37;;;;;;;;;9.67;7.67;;;;;-147.14;100.00;58812.66;5001665;28;47166;-66
2022/11/10 16:13:02;;;;;;;;;10.67;8.00;;;;;-147.14;100.00;58812.66;5003586;28;45532;-66
2022/11/10 16:15:28;;;;;;;;;11.00;9.00;;;;;-147.14;100.00;58812.66;5005712;28;65091;-66
2022/11/10 16:17:54;;;;;;;;;11.33;11.33;;;;;-147.14;100.00;58812.66;5009984;28;45543;-66
2022/11/10 16:20:19;;;;;;;;;14.00;10.67;;;;;-147.14;100.00;58812.66;5005506;28;46034;-66
2022/11/10 16:22:44;;;;;;;;;15.67;14.67;;;;;-147.14;100.00;58812.66;5003909;28;67809;-66
2022/11/10 16:25:11;;;;;;;;;13.00;12.33;;;;;-147.14;100.00;58812.66;5004992;28;65629;-66
2022/11/10 16:27:38;;;;;;;;;17.67;16.33;;;;;-147.14;100.00;58812.66;5009473;28;45508;-66
2022/11/10 16:30:11;;;;;;;;;13.67;12.00;;;;;-147.14;100.00;58812.66;5004678;28;45546;-66
2022/11/10 16:32:36;;;;;;;;;27.00;15.00;;;;;-147.14;100.00;58812.66;5006916;28;45433;-66
2022/11/10 16:35:02;;;;;;;;;17.00;15.00;;;;;-147.14;100.00;58812.66;5007970;28;45821;-66
2022/11/10 16:37:29;;;;;;;;;16.67;14.00;;;;;-147.14;100.00;58812.66;5006949;28;45558;-66
2022/11/10 16:39:54;;;;;;;;;16.00;13.67;;;;;-147.14;100.00;58812.66;4995567;28;47730;-66
2022/11/10 16:42:19;;;;;;;;;18.00;15.67;;;;;-147.14;100.00;58812.66;5003308;28;62163;-66
2022/11/10 16:44:45;;;;;;;;;16.67;15.00;;;;;-147.14;100.00;58812.66;5009867;28;47713;-66
2022/11/10 16:47:17;;;;;;;;;14.67;12.33;;;;;-147.14;100.00;58812.66;5007236;28;45384;-66
2022/11/10 16:49:43;;;;;;;;;18.00;18.00;;;;;-147.14;100.00;58812.66;4997791;28;45356;-66
2022/11/10 16:52:14;;;;;;;;;16.00;10.00;;;;;-147.14;100.00;58812.66;5008036;28;45434;-66
2022/11/10 16:54:39;;;;;;;;;18.00;15.00;;;;;-147.14;100.00;58812.66;5002641;28;45534;-66